createdAt,value
2022-08-11T00:00:09.476Z,61.36
2022-08-11T00:02:56.016Z,60.59
2022-08-11T00:05:22.512Z,60.43
2022-08-11T00:07:52.118Z,61.13
2022-08-11T00:10:22.545Z,60.99
2022-08-11T00:13:00.925Z,61.02
2022-08-11T00:15:41.866Z,60.91
2022-08-11T00:18:08.776Z,60.89
2022-08-11T00:20:40.210Z,61.02
2022-08-11T00:23:17.431Z,61.18
2022-08-11T00:25:50.152Z,61.21
2022-08-11T00:28:34.470Z,61.30
2022-08-11T00:31:08.067Z,61.39
2022-08-11T00:33:41.286Z,61.45
2022-08-11T00:36:15.492Z,61.43
2022-08-11T00:38:44.675Z,61.68
2022-08-11T00:41:29.155Z,61.65
2022-08-11T00:44:29.120Z,61.72
2022-08-11T00:47:09.230Z,61.82
2022-08-11T00:50:15.601Z,62.09
2022-08-11T00:53:25.440Z,61.95
2022-08-11T00:56:22.622Z,62.12
2022-08-11T00:59:34.481Z,62.11
2022-08-11T01:02:43.023Z,65.23
2022-08-11T01:05:37.322Z,62.43
2022-08-11T01:08:31.109Z,55.15
2022-08-11T01:11:28.706Z,54.02
2022-08-11T01:14:46.327Z,54.77
2022-08-11T01:18:13.812Z,55.59
2022-08-11T01:21:13.111Z,56.65
2022-08-11T01:24:19.759Z,57.26
2022-08-11T01:27:26.913Z,57.64
2022-08-11T01:30:17.743Z,58.10
2022-08-11T01:33:23.216Z,58.72
2022-08-11T01:36:14.186Z,59.26
2022-08-11T01:38:59.225Z,59.73
2022-08-11T01:42:20.062Z,60.25
2022-08-11T01:45:20.294Z,60.46
2022-08-11T01:48:27.547Z,60.99
2022-08-11T01:51:40.847Z,61.48
2022-08-11T01:54:28.015Z,61.86
2022-08-11T01:57:38.260Z,64.45
2022-08-11T02:00:27.618Z,62.68
2022-08-11T02:03:20.659Z,56.99
2022-08-11T02:06:33.101Z,55.82
2022-08-11T02:09:25.257Z,56.71
2022-08-11T02:11:53.072Z,57.58
2022-08-11T02:14:39.152Z,58.35
2022-08-11T02:17:18.872Z,58.97
2022-08-11T02:20:18.134Z,59.39
2022-08-11T02:24:04.075Z,59.66
2022-08-11T02:26:50.056Z,60.21
2022-08-11T02:29:33.314Z,60.74
2022-08-11T02:32:47.749Z,61.14
2022-08-11T02:35:36.063Z,61.45
2022-08-11T02:38:21.352Z,62.01
2022-08-11T02:41:00.064Z,65.00
2022-08-11T02:43:51.023Z,62.43
2022-08-11T02:46:47.345Z,56.33
2022-08-11T02:50:05.915Z,55.29
2022-08-11T02:52:50.305Z,56.34
2022-08-11T02:55:56.171Z,57.33
2022-08-11T02:58:36.629Z,58.22
2022-08-11T03:01:18.356Z,59.26
2022-08-11T03:04:00.127Z,59.88
2022-08-11T03:06:41.052Z,60.41
2022-08-11T03:09:35.246Z,61.10
2022-08-11T03:12:34.316Z,61.63
2022-08-11T03:15:40.715Z,64.67
2022-08-11T03:18:29.178Z,61.58
2022-08-11T03:21:05.435Z,56.05
2022-08-11T03:24:04.428Z,55.45
2022-08-11T03:27:05.472Z,56.66
2022-08-11T03:30:13.846Z,57.48
2022-08-11T03:33:11.537Z,58.47
2022-08-11T03:35:47.881Z,59.23
2022-08-11T03:38:15.559Z,59.84
2022-08-11T03:41:54.687Z,60.58
2022-08-11T03:45:14.960Z,61.01
2022-08-11T03:48:19.163Z,61.30
2022-08-11T03:51:22.036Z,64.35
2022-08-11T03:54:05.383Z,63.19
2022-08-11T03:57:08.788Z,57.90
2022-08-11T04:00:10.545Z,56.88
2022-08-11T04:03:31.525Z,58.06
2022-08-11T04:06:35.780Z,59.31
2022-08-11T04:10:01.169Z,59.82
2022-08-11T04:12:52.660Z,60.17
2022-08-11T04:16:20.739Z,61.42
2022-08-11T04:19:02.076Z,65.53
2022-08-11T04:21:57.410Z,62.69
2022-08-11T04:24:50.251Z,57.96
2022-08-11T04:28:02.002Z,57.30
2022-08-11T04:31:05.774Z,58.11
2022-08-11T04:34:06.449Z,58.90
2022-08-11T04:37:51.298Z,59.34
2022-08-11T04:41:13.725Z,59.57
2022-08-11T04:44:18.013Z,60.20
2022-08-11T04:48:01.462Z,60.55
2022-08-11T04:51:17.348Z,61.03
2022-08-11T04:54:16.367Z,61.41
2022-08-11T04:57:02.969Z,63.42
2022-08-11T05:00:13.653Z,63.22
2022-08-11T05:03:23.735Z,60.57
2022-08-11T05:06:26.577Z,55.67
2022-08-11T05:09:19.369Z,55.75
2022-08-11T05:12:25.406Z,56.75
2022-08-11T05:15:11.806Z,57.21
2022-08-11T05:18:32.837Z,57.92
2022-08-11T05:21:25.694Z,58.63
2022-08-11T05:24:23.359Z,59.35
2022-08-11T05:27:13.303Z,59.74
2022-08-11T05:30:14.391Z,60.48
2022-08-11T05:33:02.672Z,61.03
2022-08-11T05:36:01.915Z,63.48
2022-08-11T05:38:52.914Z,62.85
2022-08-11T05:41:42.827Z,58.77
2022-08-11T05:44:29.372Z,57.80
2022-08-11T05:47:15.287Z,58.35
2022-08-11T05:50:00.914Z,58.98
2022-08-11T05:52:49.188Z,60.20
2022-08-11T05:55:58.405Z,60.30
2022-08-11T05:58:55.426Z,60.83
2022-08-11T06:01:31.598Z,61.32
2022-08-11T06:04:17.757Z,62.77
2022-08-11T06:06:54.349Z,62.20
2022-08-11T06:09:38.051Z,59.05
2022-08-11T06:12:20.104Z,57.57
2022-08-11T06:14:49.952Z,58.20
2022-08-11T06:17:38.826Z,58.51
2022-08-11T06:20:12.413Z,59.02
2022-08-11T06:22:42.722Z,59.30
2022-08-11T06:25:11.721Z,59.70
2022-08-11T06:27:40.534Z,59.67
2022-08-11T06:30:14.038Z,59.96
2022-08-11T06:32:45.912Z,59.99
2022-08-11T06:35:26.642Z,60.01
2022-08-11T06:38:11.688Z,59.99
2022-08-11T06:41:12.692Z,59.69
2022-08-11T06:44:05.657Z,59.14
2022-08-11T06:46:38.857Z,59.16
2022-08-11T06:49:30.853Z,58.43
2022-08-11T06:52:02.918Z,58.63
2022-08-11T06:54:43.905Z,58.27
2022-08-11T06:57:36.981Z,57.39
2022-08-11T07:00:24.337Z,57.00
2022-08-11T07:03:03.442Z,55.91
2022-08-11T07:06:08.058Z,55.95
2022-08-11T07:09:03.629Z,55.49
2022-08-11T07:12:08.217Z,53.11
2022-08-11T07:14:58.265Z,52.69
2022-08-11T07:17:28.417Z,50.23
2022-08-11T07:20:18.125Z,48.60
2022-08-11T07:23:13.074Z,48.51
2022-08-11T07:26:01.478Z,48.44
2022-08-11T07:28:48.714Z,46.56
2022-08-11T07:31:35.397Z,46.17
2022-08-11T07:34:20.264Z,45.45
2022-08-11T07:36:58.075Z,44.36
2022-08-11T07:39:31.734Z,43.91
2022-08-11T07:42:02.837Z,42.83
2022-08-11T07:44:34.738Z,42.32
2022-08-11T07:47:21.199Z,41.34
2022-08-11T07:50:07.031Z,41.23
2022-08-11T07:52:37.534Z,40.46
2022-08-11T07:55:16.371Z,40.89
2022-08-11T07:58:16.424Z,38.57
2022-08-11T08:01:21.771Z,38.01
2022-08-11T08:04:09.228Z,38.09
2022-08-11T08:06:56.501Z,38.01
2022-08-11T08:09:42.920Z,36.51
2022-08-11T08:12:28.632Z,35.47
2022-08-11T08:15:14.369Z,35.73
2022-08-11T08:18:08.408Z,35.01
2022-08-11T08:20:49.257Z,35.65
2022-08-11T08:23:16.763Z,34.58
2022-08-11T08:25:45.049Z,34.11
2022-08-11T08:28:15.692Z,34.16
2022-08-11T08:30:47.082Z,34.88
2022-08-11T08:33:22.994Z,34.70
2022-08-11T08:36:10.889Z,32.73
2022-08-11T08:38:42.560Z,32.22
2022-08-11T08:41:09.180Z,31.85
2022-08-11T08:43:48.773Z,31.33
2022-08-11T08:46:20.522Z,32.53
2022-08-11T08:48:48.779Z,30.93
2022-08-11T08:51:54.892Z,31.47
2022-08-11T08:54:27.369Z,31.33
2022-08-11T08:56:55.598Z,29.43
2022-08-11T08:59:25.742Z,30.33
2022-08-11T09:01:59.975Z,30.65
2022-08-11T09:04:27.250Z,31.74
2022-08-11T09:06:57.811Z,31.76
2022-08-11T09:09:24.711Z,30.53
2022-08-11T09:11:58.979Z,30.61
2022-08-11T09:14:52.352Z,31.14
2022-08-11T09:17:19.841Z,29.15
2022-08-11T09:19:49.459Z,29.17
2022-08-11T09:22:42.322Z,30.05
2022-08-11T09:25:27.749Z,29.81
2022-08-11T09:27:55.977Z,30.24
2022-08-11T09:30:25.372Z,29.61
2022-08-11T09:32:57.467Z,28.78
2022-08-11T09:35:27.311Z,28.38
2022-08-11T09:38:14.362Z,28.21
2022-08-11T09:40:46.394Z,28.30
2022-08-11T09:43:42.190Z,28.41
2022-08-11T09:46:11.010Z,28.12
2022-08-11T09:48:45.439Z,27.57
2022-08-11T09:51:13.502Z,27.58
2022-08-11T09:53:47.211Z,27.34
2022-08-11T09:56:48.318Z,26.61
2022-08-11T09:59:19.971Z,27.15
2022-08-11T10:01:49.959Z,26.94
2022-08-11T10:04:34.205Z,26.99
2022-08-11T10:07:05.136Z,27.31
2022-08-11T10:09:40.760Z,27.76
2022-08-11T10:12:14.997Z,27.71
2022-08-11T10:15:03.370Z,28.09
2022-08-11T10:17:33.625Z,27.96
2022-08-11T10:20:05.161Z,27.57
2022-08-11T10:22:53.786Z,27.25
2022-08-11T10:25:39.854Z,26.66
2022-08-11T10:28:33.901Z,26.87
2022-08-11T10:31:32.573Z,26.77
2022-08-11T10:34:16.891Z,27.36
2022-08-11T10:36:49.081Z,27.62
2022-08-11T10:39:19.023Z,27.51
2022-08-11T10:42:09.630Z,27.53
2022-08-11T10:44:41.905Z,27.29
2022-08-11T10:47:29.340Z,27.20
2022-08-11T10:50:14.432Z,27.38
2022-08-11T10:53:00.529Z,26.82
2022-08-11T10:55:46.002Z,26.75
2022-08-11T10:58:31.464Z,26.77
2022-08-11T11:00:59.994Z,26.44
2022-08-11T11:03:29.549Z,26.86
2022-08-11T11:06:28.608Z,27.51
2022-08-11T11:09:11.252Z,27.55
2022-08-11T11:12:01.945Z,27.80
2022-08-11T11:14:58.317Z,27.98
2022-08-11T11:17:51.241Z,28.26
2022-08-11T11:20:35.998Z,28.48
2022-08-11T11:23:13.756Z,28.05
2022-08-11T11:26:27.625Z,28.04
2022-08-11T11:29:24.998Z,28.25
2022-08-11T11:32:06.036Z,28.51
2022-08-11T11:35:29.222Z,28.39
2022-08-11T11:38:04.370Z,28.04
2022-08-11T11:40:32.697Z,27.95
2022-08-11T11:43:00.004Z,28.00
2022-08-11T11:45:26.511Z,28.11
2022-08-11T11:47:55.042Z,27.62
2022-08-11T11:50:31.438Z,27.50
2022-08-11T11:53:03.584Z,27.85
2022-08-11T11:55:30.667Z,27.77
2022-08-11T11:58:19.145Z,27.54
2022-08-11T12:01:05.042Z,27.37
2022-08-11T12:03:35.181Z,27.00
2022-08-11T12:06:03.017Z,27.09
2022-08-11T12:08:30.343Z,25.43
2022-08-11T12:11:19.768Z,25.57
2022-08-11T12:13:49.816Z,25.25
2022-08-11T12:16:33.793Z,25.48
2022-08-11T12:19:07.773Z,25.42
2022-08-11T12:21:36.270Z,24.92
2022-08-11T12:24:22.494Z,24.76
2022-08-11T12:27:17.612Z,24.78
2022-08-11T12:29:55.626Z,25.15
2022-08-11T12:32:29.804Z,25.03
2022-08-11T12:34:57.218Z,25.24
2022-08-11T12:37:33.946Z,25.30
2022-08-11T12:40:42.450Z,25.43
2022-08-11T12:43:39.531Z,25.68
2022-08-11T12:46:11.026Z,25.85
2022-08-11T12:49:03.784Z,25.69
2022-08-11T12:52:13.022Z,25.41
2022-08-11T12:54:59.354Z,25.32
2022-08-11T12:57:55.921Z,25.22
2022-08-11T13:00:42.630Z,25.16
2022-08-11T13:03:30.298Z,25.34
2022-08-11T13:06:03.106Z,25.89
2022-08-11T13:08:35.068Z,26.22
2022-08-11T13:11:21.668Z,26.18
2022-08-11T13:13:55.313Z,26.34
2022-08-11T13:16:31.712Z,26.26
2022-08-11T13:19:02.890Z,26.37
2022-08-11T13:21:29.775Z,26.21
2022-08-11T13:24:01.507Z,26.62
2022-08-11T13:26:47.014Z,26.92
2022-08-11T13:29:24.251Z,26.86
2022-08-11T13:31:57.777Z,27.17
2022-08-11T13:34:26.593Z,27.41
2022-08-11T13:36:56.314Z,27.42
2022-08-11T13:39:30.601Z,27.50
2022-08-11T13:42:00.041Z,27.62
2022-08-11T13:44:30.615Z,27.78
2022-08-11T13:47:03.990Z,27.97
2022-08-11T13:49:34.692Z,27.97
2022-08-11T13:52:03.335Z,28.01
2022-08-11T13:54:32.297Z,28.04
2022-08-11T13:57:13.447Z,27.95
2022-08-11T14:00:09.943Z,28.02
2022-08-11T14:02:56.322Z,27.97
2022-08-11T14:05:50.627Z,28.19
2022-08-11T14:08:37.526Z,28.16
2022-08-11T14:12:23.071Z,28.34
2022-08-11T14:14:24.306Z,28.46
2022-08-11T14:16:57.502Z,28.61
2022-08-11T14:19:28.863Z,28.78
2022-08-11T14:22:10.299Z,29.19
2022-08-11T14:24:44.390Z,29.12
2022-08-11T14:28:30.470Z,29.15
2022-08-11T14:30:05.106Z,29.31
2022-08-11T14:32:35.900Z,29.31
2022-08-11T14:35:21.653Z,29.51
2022-08-11T14:37:50.306Z,29.65
2022-08-11T14:40:37.210Z,29.68
2022-08-11T14:44:12.695Z,29.54
2022-08-11T14:49:04.041Z,29.74
2022-08-11T14:51:33.161Z,29.62
2022-08-11T14:54:21.586Z,29.46
2022-08-11T14:56:50.890Z,29.37
2022-08-11T14:59:19.411Z,29.46
2022-08-11T15:02:06.788Z,29.67
2022-08-11T15:04:36.825Z,29.61
2022-08-11T15:07:05.495Z,29.64
2022-08-11T15:10:11.696Z,29.77
2022-08-11T15:12:35.853Z,29.66
2022-08-11T15:15:25.397Z,29.39
2022-08-11T15:17:55.920Z,29.44
2022-08-11T15:20:48.209Z,29.24
2022-08-11T15:23:40.962Z,29.27
2022-08-11T15:26:16.613Z,29.32
2022-08-11T15:29:10.063Z,29.30
2022-08-11T15:31:44.293Z,29.17
2022-08-11T15:34:39.197Z,29.11
2022-08-11T15:37:31.640Z,29.23
2022-08-11T15:40:37.221Z,29.35
2022-08-11T15:43:34.254Z,29.38
2022-08-11T15:46:12.346Z,29.36
2022-08-11T15:48:52.183Z,29.20
2022-08-11T15:51:32.651Z,29.00
2022-08-11T15:54:09.089Z,29.00
2022-08-11T15:56:44.565Z,29.02
2022-08-11T15:59:41.640Z,29.12
2022-08-11T16:02:37.528Z,29.26
2022-08-11T16:05:10.884Z,29.40
2022-08-11T16:07:40.630Z,29.46
2022-08-11T16:10:19.621Z,29.54
2022-08-11T16:13:06.013Z,29.65
2022-08-11T16:15:57.108Z,29.70
2022-08-11T16:18:43.068Z,29.88
2022-08-11T16:21:33.556Z,29.90
2022-08-11T16:26:17.652Z,30.15
2022-08-11T16:27:10.384Z,30.28
2022-08-11T16:29:48.035Z,30.46
2022-08-11T16:32:22.352Z,30.53
2022-08-11T16:35:20.145Z,30.68
2022-08-11T16:38:08.655Z,30.56
2022-08-11T16:40:37.776Z,30.52
2022-08-11T16:43:27.860Z,30.47
2022-08-11T16:46:15.140Z,30.47
2022-08-11T16:48:46.668Z,30.69
2022-08-11T16:51:15.164Z,31.12
2022-08-11T16:53:46.053Z,31.27
2022-08-11T16:56:42.405Z,31.31
2022-08-11T16:59:18.295Z,31.51
2022-08-11T17:01:56.422Z,31.63
2022-08-11T17:05:20.166Z,31.79
2022-08-11T17:08:07.023Z,31.89
2022-08-11T17:11:03.918Z,32.00
2022-08-11T17:13:38.824Z,32.11
2022-08-11T17:16:12.954Z,32.17
2022-08-11T17:18:58.975Z,32.38
2022-08-11T17:21:58.724Z,32.23
2022-08-11T17:24:28.677Z,32.40
2022-08-11T17:26:58.202Z,32.46
2022-08-11T17:29:54.880Z,32.44
2022-08-11T17:32:55.978Z,32.47
2022-08-11T17:35:32.248Z,32.37
2022-08-11T17:38:12.262Z,32.51
2022-08-11T17:41:14.533Z,32.52
2022-08-11T17:44:11.554Z,32.61
2022-08-11T17:47:05.190Z,32.76
2022-08-11T17:49:39.764Z,32.97
2022-08-11T17:52:28.787Z,33.10
2022-08-11T17:55:51.715Z,33.30
2022-08-11T17:58:41.015Z,33.24
2022-08-11T18:01:12.836Z,33.36
2022-08-11T18:03:57.884Z,33.46
2022-08-11T18:06:34.187Z,33.74
2022-08-11T18:09:28.917Z,33.96
2022-08-11T18:12:16.519Z,34.48
2022-08-11T18:15:08.545Z,34.04
2022-08-11T18:17:56.239Z,34.73
2022-08-11T18:20:44.060Z,34.62
2022-08-11T18:23:46.695Z,35.59
2022-08-11T18:26:38.878Z,35.54
2022-08-11T18:29:26.325Z,36.41
2022-08-11T18:32:22.027Z,36.16
2022-08-11T18:35:11.383Z,36.58
2022-08-11T18:38:06.753Z,36.41
2022-08-11T18:40:54.607Z,36.72
2022-08-11T18:43:44.595Z,37.51
2022-08-11T18:46:35.159Z,38.00
2022-08-11T18:50:02.592Z,38.08
2022-08-11T18:52:41.839Z,38.27
2022-08-11T18:55:34.254Z,38.55
2022-08-11T18:58:28.422Z,38.60
2022-08-11T19:01:17.794Z,38.93
2022-08-11T19:04:10.631Z,39.49
2022-08-11T19:07:01.047Z,39.81
2022-08-11T19:09:49.076Z,40.33
2022-08-11T19:12:36.506Z,40.85
2022-08-11T19:15:23.950Z,40.98
2022-08-11T19:18:11.907Z,41.09
2022-08-11T19:21:01.362Z,41.49
2022-08-11T19:23:54.394Z,41.57
2022-08-11T19:26:42.840Z,41.93
2022-08-11T19:30:07.194Z,41.89
2022-08-11T19:32:40.158Z,41.84
2022-08-11T19:35:28.893Z,42.15
2022-08-11T19:38:20.513Z,42.12
2022-08-11T19:41:09.286Z,42.64
2022-08-11T19:43:59.657Z,42.35
2022-08-11T19:46:47.637Z,42.51
2022-08-11T19:49:35.616Z,42.03
2022-08-11T19:52:26.063Z,42.13
2022-08-11T19:55:14.167Z,42.24
2022-08-11T19:58:03.009Z,42.82
2022-08-11T20:00:52.419Z,43.35
2022-08-11T20:03:41.492Z,43.72
2022-08-11T20:06:28.616Z,43.82
2022-08-11T20:09:19.404Z,44.00
2022-08-11T20:12:12.509Z,44.46
2022-08-11T20:15:21.906Z,45.41
2022-08-11T20:18:10.862Z,46.04
2022-08-11T20:20:59.626Z,46.23
2022-08-11T20:23:49.154Z,46.38
2022-08-11T20:26:38.098Z,46.53
2022-08-11T20:29:27.320Z,46.73
2022-08-11T20:32:16.791Z,46.92
2022-08-11T20:35:47.411Z,46.71
2022-08-11T20:38:50.332Z,46.92
2022-08-11T20:41:58.236Z,47.37
2022-08-11T20:44:46.929Z,47.26
2022-08-11T20:47:56.152Z,47.62
2022-08-11T20:50:45.759Z,47.67
2022-08-11T20:53:39.200Z,47.90
2022-08-11T20:56:30.074Z,48.23
2022-08-11T20:59:21.840Z,48.45
2022-08-11T21:02:10.700Z,48.86
2022-08-11T21:05:00.733Z,48.50
2022-08-11T21:07:58.872Z,48.86
2022-08-11T21:10:52.634Z,49.26
2022-08-11T21:13:46.618Z,49.25
2022-08-11T21:16:40.920Z,49.95
2022-08-11T21:19:59.752Z,50.34
2022-08-11T21:22:59.216Z,50.48
2022-08-11T21:26:08.205Z,50.68
2022-08-11T21:28:58.345Z,51.23
2022-08-11T21:31:48.569Z,51.60
2022-08-11T21:34:38.328Z,51.91
2022-08-11T21:37:26.866Z,52.30
2022-08-11T21:40:17.056Z,52.47
2022-08-11T21:43:06.556Z,52.65
2022-08-11T21:45:57.138Z,52.47
2022-08-11T21:48:48.190Z,52.47
2022-08-11T21:51:34.802Z,52.90
2022-08-11T21:54:21.350Z,53.26
2022-08-11T21:57:09.370Z,53.84
2022-08-11T22:00:11.000Z,54.27
2022-08-11T22:02:58.715Z,54.60
2022-08-11T22:05:45.652Z,54.78
2022-08-11T22:08:33.457Z,54.61
2022-08-11T22:11:32.465Z,54.66
2022-08-11T22:14:24.507Z,54.59
2022-08-11T22:17:10.909Z,54.89
2022-08-11T22:20:00.834Z,55.15
2022-08-11T22:22:52.888Z,55.35
2022-08-11T22:25:51.507Z,55.71
2022-08-11T22:28:40.876Z,55.75
2022-08-11T22:31:27.965Z,55.94
2022-08-11T22:34:14.960Z,56.19
2022-08-11T22:37:03.801Z,56.48
2022-08-11T22:39:59.905Z,56.59
2022-08-11T22:42:52.852Z,56.71
2022-08-11T22:45:40.141Z,56.77
2022-08-11T22:48:28.599Z,57.06
2022-08-11T22:51:17.181Z,57.39
2022-08-11T22:54:04.997Z,57.85
2022-08-11T22:56:52.009Z,57.90
2022-08-11T22:59:39.093Z,58.13
2022-08-11T23:02:26.266Z,58.16
2022-08-11T23:05:13.868Z,58.41
2022-08-11T23:08:00.766Z,58.66
2022-08-11T23:10:47.251Z,58.82
2022-08-11T23:13:34.158Z,58.75
2022-08-11T23:16:21.147Z,58.64
2022-08-11T23:19:08.152Z,58.59
2022-08-11T23:21:55.991Z,58.61
2022-08-11T23:24:44.884Z,58.57
2022-08-11T23:27:32.886Z,58.87
2022-08-11T23:30:21.069Z,59.20
2022-08-11T23:33:13.721Z,59.33
2022-08-11T23:36:05.632Z,59.35
2022-08-11T23:38:52.850Z,59.16
2022-08-11T23:41:40.246Z,59.58
2022-08-11T23:44:28.400Z,58.86
2022-08-11T23:47:19.383Z,58.99
2022-08-11T23:50:07.297Z,58.95
2022-08-11T23:52:54.298Z,59.63
2022-08-11T23:55:40.809Z,59.79
2022-08-11T23:58:28.315Z,59.37
